Time;durP1;ratioP1;P1;durP2;ratioP2;P2;SDS_P1;SDS_P2;PMS_P1;PMS_P2;Temp;Humidity;BMP_temperature;BMP_pressure;BME280_temperature;BME280_humidity;BME280_pressure;Samples;Min_cycle;Max_cycle;Signal;HPM_P1;HPM_P2
2022/11/23 00:01:33;;;;;;;1.30;0.77;;;9.50;99.90;;;;;;5033096;28;20196;-77
2022/11/23 00:04:09;;;;;;;1.10;0.67;;;9.40;99.90;;;;;;5033023;28;20229;-76
2022/11/23 00:06:34;;;;;;;1.50;0.70;;;9.40;99.90;;;;;;5031730;28;20797;-77
2022/11/23 00:09:00;;;;;;;1.53;0.80;;;9.50;99.90;;;;;;5031671;28;20450;-77
2022/11/23 00:11:27;;;;;;;1.30;0.90;;;9.50;99.90;;;;;;5032654;28;20632;-77
2022/11/23 00:13:54;;;;;;;3.40;0.90;;;9.50;99.90;;;;;;5032676;28;20172;-77
2022/11/23 00:16:25;;;;;;;2.30;0.80;;;9.50;99.90;;;;;;5031138;28;20450;-76
2022/11/23 00:18:58;;;;;;;4.50;0.80;;;9.60;99.90;;;;;;5032900;28;20761;-77
2022/11/23 00:21:27;;;;;;;1.90;1.00;;;9.50;99.90;;;;;;5032568;28;20418;-76
2022/11/23 00:23:52;;;;;;;1.73;0.90;;;9.50;99.90;;;;;;5031099;28;20474;-77
2022/11/23 00:26:18;;;;;;;1.10;0.60;;;9.50;99.90;;;;;;5032254;28;20503;-75
2022/11/23 00:28:44;;;;;;;1.60;0.70;;;9.50;99.90;;;;;;5036386;28;20624;-75
2022/11/23 00:31:13;;;;;;;1.57;0.73;;;9.60;99.90;;;;;;5052086;28;20436;-77
2022/11/23 00:33:39;;;;;;;5.33;0.93;;;9.50;99.90;;;;;;5052662;28;20415;-77
2022/11/23 00:36:08;;;;;;;2.93;0.90;;;9.60;99.90;;;;;;5051202;28;20496;-77
2022/11/23 00:38:33;;;;;;;1.70;0.90;;;9.50;99.90;;;;;;5051096;28;20236;-77
2022/11/23 00:41:08;;;;;;;1.30;0.70;;;9.60;99.90;;;;;;5052054;28;20421;-77
2022/11/23 00:43:34;;;;;;;1.83;0.70;;;9.60;99.90;;;;;;5052414;28;20162;-76
2022/11/23 00:46:11;;;;;;;1.10;0.60;;;9.60;99.90;;;;;;5050818;28;20418;-77
2022/11/23 00:48:37;;;;;;;1.53;0.87;;;9.50;99.90;;;;;;5051866;28;20787;-77
2022/11/23 00:51:04;;;;;;;1.33;0.70;;;9.60;99.90;;;;;;5052008;28;20459;-76
2022/11/23 00:53:29;;;;;;;1.30;0.80;;;9.60;99.90;;;;;;5050563;28;20285;-77
2022/11/23 00:55:56;;;;;;;3.30;1.97;;;9.50;99.90;;;;;;5050392;28;20437;-76
2022/11/23 00:58:22;;;;;;;1.10;0.70;;;9.50;99.90;;;;;;5051782;28;20228;-77
2022/11/23 01:00:47;;;;;;;3.67;0.90;;;9.50;99.90;;;;;;5051784;28;20412;-77
2022/11/23 01:03:14;;;;;;;2.63;1.10;;;9.50;99.90;;;;;;5050478;28;20871;-76
2022/11/23 01:05:40;;;;;;;7.53;1.67;;;9.50;99.90;;;;;;5051777;28;20171;-77
2022/11/23 01:08:06;;;;;;;2.70;0.70;;;9.50;99.90;;;;;;5050737;28;20558;-77
2022/11/23 01:10:32;;;;;;;1.27;0.80;;;9.50;99.90;;;;;;5051510;28;20504;-77
2022/11/23 01:12:58;;;;;;;2.13;0.70;;;9.50;99.90;;;;;;5051979;28;20556;-77
2022/11/23 01:15:24;;;;;;;1.20;0.83;;;9.50;99.90;;;;;;5050704;28;20401;-77
2022/11/23 01:17:50;;;;;;;1.90;0.80;;;9.40;99.90;;;;;;5051856;28;20393;-77
2022/11/23 01:20:15;;;;;;;4.50;0.80;;;9.50;99.90;;;;;;5050684;28;20452;-77
2022/11/23 01:22:41;;;;;;;1.93;0.90;;;9.50;99.90;;;;;;5050136;28;20314;-76
2022/11/23 01:25:07;;;;;;;1.00;0.70;;;9.40;99.90;;;;;;5051195;28;20177;-77
2022/11/23 01:27:32;;;;;;;3.70;0.80;;;9.40;99.90;;;;;;5051750;28;20190;-77
2022/11/23 01:29:58;;;;;;;2.97;0.90;;;9.40;99.90;;;;;;5054539;28;20209;-77
2022/11/23 01:32:24;;;;;;;5.80;1.17;;;9.40;99.90;;;;;;5054311;28;20189;-76
2022/11/23 01:34:50;;;;;;;4.10;1.23;;;9.40;99.90;;;;;;5055335;28;20189;-76
2022/11/23 01:37:15;;;;;;;1.27;0.77;;;9.40;99.90;;;;;;5054671;28;20405;-77
2022/11/23 01:39:40;;;;;;;3.00;1.57;;;9.50;99.90;;;;;;5055659;28;20170;-76
2022/11/23 01:42:07;;;;;;;1.60;1.17;;;9.40;99.90;;;;;;5055553;28;20187;-77
2022/11/23 01:44:35;;;;;;;1.40;0.70;;;9.50;99.90;;;;;;5055187;28;20167;-78
2022/11/23 01:47:04;;;;;;;2.70;0.73;;;9.50;99.90;;;;;;5055443;28;20401;-77
2022/11/23 01:49:38;;;;;;;1.20;0.73;;;9.50;99.90;;;;;;5053740;28;20555;-77
2022/11/23 01:52:09;;;;;;;3.80;1.10;;;9.50;99.90;;;;;;5053981;28;20775;-77
2022/11/23 01:54:48;;;;;;;1.77;0.90;;;9.50;99.90;;;;;;5054911;28;20408;-77
2022/11/23 01:57:21;;;;;;;4.73;2.00;;;9.60;99.90;;;;;;5053715;28;20504;-77
2022/11/23 01:59:48;;;;;;;1.77;0.97;;;9.60;99.90;;;;;;5055145;28;20393;-76
2022/11/23 02:02:15;;;;;;;2.07;1.20;;;9.60;99.90;;;;;;5055212;28;20898;-77
2022/11/23 02:04:44;;;;;;;3.90;0.97;;;9.60;99.90;;;;;;5054759;28;20406;-77
2022/11/23 02:07:10;;;;;;;2.50;1.17;;;9.60;99.90;;;;;;5054975;28;20393;-77
2022/11/23 02:09:36;;;;;;;1.57;0.90;;;9.60;99.90;;;;;;5054794;28;20444;-77
2022/11/23 02:12:02;;;;;;;1.10;0.73;;;9.50;99.90;;;;;;5054827;28;20968;-77
2022/11/23 02:14:28;;;;;;;1.50;0.90;;;9.60;99.90;;;;;;5053174;28;20488;-76
2022/11/23 02:16:57;;;;;;;2.10;0.97;;;9.60;99.90;;;;;;5054662;28;20176;-77
2022/11/23 02:19:59;;;;;;;1.60;0.90;;;9.60;99.90;;;;;;5054564;28;20488;-75
2022/11/23 02:22:31;;;;;;;2.23;1.37;;;9.60;99.90;;;;;;5053960;28;20468;-75
2022/11/23 02:24:59;;;;;;;3.50;1.37;;;9.50;99.90;;;;;;5053972;28;20445;-74
2022/11/23 02:27:25;;;;;;;1.20;0.80;;;9.50;99.90;;;;;;5054372;28;20420;-76
2022/11/23 02:29:53;;;;;;;5.37;2.93;;;9.50;99.90;;;;;;5054397;28;20453;-75
2022/11/23 02:32:22;;;;;;;4.30;1.00;;;9.50;99.90;;;;;;5054405;28;20453;-77
2022/11/23 02:34:48;;;;;;;3.00;1.10;;;9.40;99.90;;;;;;5053843;28;20428;-76
2022/11/23 02:37:15;;;;;;;5.87;1.47;;;9.40;99.90;;;;;;5054270;28;20478;-77
2022/11/23 02:39:44;;;;;;;1.50;0.80;;;9.40;99.90;;;;;;5053915;28;20406;-77
2022/11/23 02:42:10;;;;;;;2.63;1.00;;;9.40;99.90;;;;;;5052986;28;20449;-77
2022/11/23 02:45:18;;;;;;;2.03;1.03;;;9.40;99.90;;;;;;5053971;28;20458;-76
2022/11/23 02:47:43;;;;;;;3.70;1.40;;;9.40;99.90;;;;;;5053024;28;20175;-75
2022/11/23 02:50:09;;;;;;;3.90;1.23;;;9.40;99.90;;;;;;5052862;28;20579;-77
2022/11/23 02:52:34;;;;;;;1.30;0.90;;;9.40;99.90;;;;;;5052549;28;20228;-77
2022/11/23 02:55:00;;;;;;;2.87;1.13;;;9.50;99.90;;;;;;5053696;28;20202;-77
2022/11/23 02:57:26;;;;;;;3.43;1.17;;;9.50;99.90;;;;;;5054231;28;20193;-77
2022/11/23 02:59:51;;;;;;;2.20;0.90;;;9.50;99.90;;;;;;5053740;28;20229;-77
2022/11/23 03:02:17;;;;;;;2.60;1.80;;;9.50;99.90;;;;;;5052221;28;20236;-77
2022/11/23 03:04:42;;;;;;;4.10;1.50;;;9.50;99.90;;;;;;5053482;28;20179;-76
2022/11/23 03:07:08;;;;;;;6.03;1.10;;;9.50;99.90;;;;;;5052421;28;20206;-76
2022/11/23 03:09:33;;;;;;;2.10;0.90;;;9.50;99.90;;;;;;5053424;28;20202;-74
2022/11/23 03:11:59;;;;;;;2.67;0.97;;;9.40;99.90;;;;;;5053393;28;20285;-74
2022/11/23 03:14:24;;;;;;;5.00;1.20;;;9.50;99.90;;;;;;5051921;28;20216;-75
2022/11/23 03:16:50;;;;;;;3.67;1.60;;;9.50;99.90;;;;;;5053535;28;20177;-73
2022/11/23 03:19:15;;;;;;;4.60;1.40;;;9.50;99.90;;;;;;5053350;28;20174;-74
2022/11/23 03:21:41;;;;;;;3.47;1.63;;;9.50;99.90;;;;;;5052927;28;20595;-75
2022/11/23 03:24:07;;;;;;;3.37;1.17;;;9.50;99.90;;;;;;5053372;28;20217;-74
2022/11/23 03:26:32;;;;;;;4.10;1.23;;;9.50;99.90;;;;;;5053036;28;20265;-74
2022/11/23 03:28:58;;;;;;;8.50;1.30;;;9.50;99.90;;;;;;5053070;28;20198;-74
2022/11/23 03:31:24;;;;;;;3.07;0.97;;;9.60;99.90;;;;;;5052979;28;20174;-75
2022/11/23 03:33:49;;;;;;;2.70;1.00;;;9.50;99.90;;;;;;5051554;28;20249;-75
2022/11/23 03:36:15;;;;;;;2.73;1.40;;;9.60;99.90;;;;;;5052833;28;20410;-75
2022/11/23 03:38:40;;;;;;;5.13;1.40;;;9.60;99.90;;;;;;5053006;28;20213;-74
2022/11/23 03:41:06;;;;;;;5.30;1.40;;;9.60;99.90;;;;;;5052991;28;20292;-75
2022/11/23 03:43:31;;;;;;;1.73;1.13;;;9.60;99.90;;;;;;5052775;28;20679;-76
2022/11/23 03:45:57;;;;;;;1.70;1.10;;;9.50;99.90;;;;;;5052374;28;20273;-74
2022/11/23 03:48:22;;;;;;;2.90;1.23;;;9.50;99.90;;;;;;5051500;28;20182;-74
2022/11/23 03:50:48;;;;;;;2.17;1.00;;;9.50;99.90;;;;;;5052738;28;20529;-74
2022/11/23 03:53:13;;;;;;;2.70;1.43;;;9.50;99.90;;;;;;5052394;28;20552;-75
2022/11/23 03:55:39;;;;;;;1.53;0.97;;;9.50;99.90;;;;;;5051085;28;20652;-74
2022/11/23 03:58:04;;;;;;;2.80;0.90;;;9.40;99.90;;;;;;5052347;28;20169;-74
2022/11/23 04:00:30;;;;;;;2.40;1.43;;;9.40;99.90;;;;;;5052580;28;20166;-75
2022/11/23 04:02:56;;;;;;;5.47;1.77;;;9.40;99.90;;;;;;5052479;28;20671;-75
2022/11/23 04:05:22;;;;;;;3.00;0.90;;;9.40;99.90;;;;;;5052278;28;20409;-74
2022/11/23 04:07:48;;;;;;;1.43;0.90;;;9.40;99.90;;;;;;5052645;28;20240;-74
2022/11/23 04:10:16;;;;;;;3.20;1.20;;;9.40;99.90;;;;;;5052167;28;20187;-76
2022/11/23 04:12:41;;;;;;;4.33;1.50;;;9.40;99.90;;;;;;5052641;28;20495;-77
2022/11/23 04:15:07;;;;;;;3.73;1.40;;;9.40;99.90;;;;;;5052227;28;20393;-77
2022/11/23 04:17:33;;;;;;;3.20;1.20;;;9.40;99.90;;;;;;5052436;28;20155;-77
2022/11/23 04:19:58;;;;;;;3.93;1.60;;;9.40;99.90;;;;;;5052508;28;20410;-76
2022/11/23 04:22:24;;;;;;;1.23;0.93;;;9.40;99.90;;;;;;5051942;28;20249;-77
2022/11/23 04:24:49;;;;;;;2.50;1.60;;;9.40;99.90;;;;;;5052211;28;20171;-77
2022/11/23 04:27:15;;;;;;;6.63;0.80;;;9.40;99.90;;;;;;5052304;28;20163;-76
2022/11/23 04:29:40;;;;;;;5.70;1.03;;;9.30;99.90;;;;;;5051377;28;20199;-76
2022/11/23 04:32:06;;;;;;;3.20;1.27;;;9.40;99.90;;;;;;5052335;28;20248;-78
2022/11/23 04:34:31;;;;;;;4.60;1.30;;;9.30;99.90;;;;;;5052118;28;20171;-77
2022/11/23 04:36:57;;;;;;;2.37;1.13;;;9.30;99.90;;;;;;5052493;28;20175;-77
2022/11/23 04:39:22;;;;;;;1.87;0.80;;;9.30;99.90;;;;;;5053071;28;20170;-77
2022/11/23 04:41:48;;;;;;;2.37;1.10;;;9.30;99.90;;;;;;5052401;28;20197;-77
2022/11/23 04:44:13;;;;;;;4.50;1.63;;;9.30;99.90;;;;;;5051273;28;20261;-77
2022/11/23 04:46:39;;;;;;;4.37;1.97;;;9.30;99.90;;;;;;5055346;28;20186;-76
2022/11/23 04:49:04;;;;;;;6.20;1.60;;;9.30;99.90;;;;;;5052002;28;20191;-77
2022/11/23 04:51:30;;;;;;;1.60;0.93;;;9.30;99.90;;;;;;5053929;28;20205;-78
2022/11/23 04:53:55;;;;;;;3.77;1.50;;;9.30;99.90;;;;;;5051710;28;20163;-76
2022/11/23 04:56:21;;;;;;;3.60;1.17;;;9.20;99.90;;;;;;5051917;28;20167;-77
2022/11/23 04:58:46;;;;;;;4.27;1.13;;;9.20;99.90;;;;;;5050800;28;20179;-77
2022/11/23 05:01:12;;;;;;;2.47;1.50;;;9.10;99.90;;;;;;5051931;28;20234;-77
2022/11/23 05:03:37;;;;;;;5.53;1.30;;;9.10;99.90;;;;;;5052513;28;20602;-75
2022/11/23 05:06:04;;;;;;;3.80;1.33;;;9.20;99.90;;;;;;5056108;28;20617;-80
2022/11/23 05:08:30;;;;;;;2.57;0.90;;;9.20;99.90;;;;;;5054651;28;20786;-77
2022/11/23 05:10:55;;;;;;;4.03;1.23;;;9.10;99.90;;;;;;5055605;28;20444;-77
2022/11/23 05:13:21;;;;;;;1.50;0.80;;;9.10;99.90;;;;;;5054587;28;20198;-77
2022/11/23 05:15:47;;;;;;;2.50;1.63;;;9.10;99.90;;;;;;5055587;28;20415;-77
2022/11/23 05:18:13;;;;;;;4.00;1.17;;;9.10;99.90;;;;;;5055727;28;20408;-77
2022/11/23 05:20:39;;;;;;;3.50;1.70;;;9.00;99.90;;;;;;5055677;28;20178;-77
2022/11/23 05:23:04;;;;;;;3.10;1.23;;;9.00;99.90;;;;;;5055264;28;20202;-74
2022/11/23 05:25:30;;;;;;;2.50;0.87;;;9.00;99.90;;;;;;5055323;28;20408;-76
2022/11/23 05:27:56;;;;;;;2.53;1.30;;;9.00;99.90;;;;;;5054184;28;20266;-74
2022/11/23 05:30:23;;;;;;;3.47;1.00;;;9.00;99.90;;;;;;5055552;28;20218;-75
2022/11/23 05:32:48;;;;;;;1.60;1.10;;;9.00;99.90;;;;;;5053957;28;20524;-75
2022/11/23 05:35:14;;;;;;;3.23;1.00;;;9.00;99.90;;;;;;5054885;28;20419;-74
2022/11/23 05:37:40;;;;;;;2.17;1.23;;;9.00;99.90;;;;;;5055319;28;20167;-74
2022/11/23 05:40:07;;;;;;;4.80;1.57;;;9.00;99.90;;;;;;5055301;28;20225;-74
2022/11/23 05:42:32;;;;;;;6.77;1.33;;;9.10;99.90;;;;;;5055037;28;20429;-74
2022/11/23 05:44:58;;;;;;;6.47;1.50;;;9.00;99.90;;;;;;5054931;28;20401;-75
2022/11/23 05:47:23;;;;;;;4.23;1.30;;;9.00;99.90;;;;;;5054801;28;20230;-75
2022/11/23 05:49:49;;;;;;;5.67;1.40;;;8.90;99.90;;;;;;5053688;28;20206;-76
2022/11/23 05:52:15;;;;;;;5.03;1.33;;;9.00;99.90;;;;;;5053679;28;20198;-75
2022/11/23 05:54:41;;;;;;;4.03;1.73;;;9.00;99.90;;;;;;5054783;28;20419;-77
2022/11/23 05:57:06;;;;;;;4.10;1.43;;;9.00;99.90;;;;;;5055304;28;20428;-77
2022/11/23 05:59:32;;;;;;;6.63;1.20;;;9.00;99.90;;;;;;5055028;28;20174;-77
2022/11/23 06:01:57;;;;;;;1.87;0.90;;;9.00;99.90;;;;;;5054955;28;20205;-76
2022/11/23 06:04:23;;;;;;;3.67;1.60;;;9.00;99.90;;;;;;5054978;28;20692;-76
2022/11/23 06:06:48;;;;;;;4.40;1.43;;;9.00;99.90;;;;;;5055261;28;20181;-74
2022/11/23 06:09:14;;;;;;;4.13;2.40;;;9.10;99.90;;;;;;5054278;28;20292;-74
2022/11/23 06:11:40;;;;;;;2.47;1.53;;;9.10;99.90;;;;;;5053134;28;20187;-76
2022/11/23 06:14:05;;;;;;;6.60;1.43;;;9.10;99.90;;;;;;5053603;28;20163;-76
2022/11/23 06:16:31;;;;;;;4.07;1.23;;;9.10;99.90;;;;;;5054088;28;20254;-75
2022/11/23 06:18:56;;;;;;;2.33;0.80;;;9.10;99.90;;;;;;5049793;28;20203;-74
2022/11/23 06:21:22;;;;;;;6.77;1.37;;;9.10;99.90;;;;;;5034738;28;20625;-75
2022/11/23 06:23:47;;;;;;;2.60;1.03;;;9.10;99.90;;;;;;5033286;28;20278;-73
2022/11/23 06:26:14;;;;;;;7.43;1.70;;;9.10;99.90;;;;;;5034078;28;20178;-75
2022/11/23 06:28:40;;;;;;;1.40;1.00;;;9.10;99.90;;;;;;5034458;28;20175;-73
2022/11/23 06:31:06;;;;;;;5.83;1.33;;;9.00;99.90;;;;;;5045134;28;20429;-72
2022/11/23 06:33:32;;;;;;;4.33;3.93;;;9.00;99.90;;;;;;5054251;28;20444;-72
2022/11/23 06:36:00;;;;;;;3.33;1.40;;;9.00;99.90;;;;;;5054223;28;20695;-72
2022/11/23 06:38:26;;;;;;;3.50;1.40;;;9.00;99.90;;;;;;5054248;28;20489;-74
2022/11/23 06:40:51;;;;;;;12.53;2.07;;;9.00;99.90;;;;;;5054183;28;20492;-73
2022/11/23 06:43:17;;;;;;;2.70;1.10;;;9.00;99.90;;;;;;5053773;28;20203;-73
2022/11/23 06:45:43;;;;;;;2.07;1.20;;;8.90;99.90;;;;;;5053849;28;20258;-75
2022/11/23 06:48:08;;;;;;;1.70;1.20;;;8.90;99.90;;;;;;5052589;28;20190;-73
2022/11/23 06:50:34;;;;;;;3.97;1.30;;;8.90;99.90;;;;;;5053962;28;20869;-76
2022/11/23 06:53:00;;;;;;;5.27;1.27;;;8.80;99.90;;;;;;5053928;28;20187;-76
2022/11/23 06:55:26;;;;;;;1.87;1.20;;;8.80;99.90;;;;;;5033047;28;20179;-76
2022/11/23 06:57:51;;;;;;;11.13;1.47;;;8.80;99.90;;;;;;5034056;28;20410;-74
2022/11/23 07:00:18;;;;;;;2.00;1.20;;;8.70;99.90;;;;;;5033885;28;20183;-74
2022/11/23 07:02:51;;;;;;;12.33;1.37;;;8.70;99.90;;;;;;5033951;28;20188;-73
2022/11/23 07:05:17;;;;;;;5.13;1.00;;;8.60;99.90;;;;;;5034734;28;20413;-75
2022/11/23 07:07:43;;;;;;;2.23;1.03;;;8.60;99.90;;;;;;5053693;28;20417;-74
2022/11/23 07:10:08;;;;;;;6.27;2.20;;;8.60;99.90;;;;;;5053471;28;20248;-75
2022/11/23 07:12:34;;;;;;;6.07;1.70;;;8.60;99.90;;;;;;5053451;28;20191;-74
2022/11/23 07:15:00;;;;;;;4.13;1.50;;;8.60;99.90;;;;;;5053205;28;20167;-75
2022/11/23 07:17:25;;;;;;;4.30;1.83;;;8.50;99.90;;;;;;5053374;28;20171;-75
2022/11/23 07:19:51;;;;;;;7.23;1.53;;;8.50;99.90;;;;;;5053158;28;20179;-73
2022/11/23 07:22:16;;;;;;;5.23;1.23;;;8.50;99.90;;;;;;5053196;28;20203;-73
2022/11/23 07:24:42;;;;;;;3.80;1.50;;;8.50;99.90;;;;;;5052946;28;20166;-74
2022/11/23 07:27:07;;;;;;;3.67;1.10;;;8.50;99.90;;;;;;5052615;28;20167;-73
2022/11/23 07:29:32;;;;;;;4.93;2.30;;;8.50;99.90;;;;;;5053102;28;20252;-73
2022/11/23 07:31:59;;;;;;;6.10;1.50;;;8.50;99.90;;;;;;5052847;28;20213;-73
2022/11/23 07:34:26;;;;;;;5.83;1.17;;;8.50;99.90;;;;;;5052935;28;20197;-73
2022/11/23 07:36:51;;;;;;;6.20;1.50;;;8.40;99.90;;;;;;5051921;28;20916;-73
2022/11/23 07:39:17;;;;;;;2.83;1.30;;;8.50;99.90;;;;;;5052978;28;20416;-73
2022/11/23 07:41:42;;;;;;;4.83;1.43;;;8.50;99.90;;;;;;5052669;28;20198;-73
2022/11/23 07:44:08;;;;;;;5.97;1.90;;;8.50;99.90;;;;;;5052650;28;20175;-75
2022/11/23 07:46:34;;;;;;;9.07;2.60;;;8.50;99.90;;;;;;5052656;28;20174;-73
2022/11/23 07:49:01;;;;;;;5.53;1.90;;;8.60;99.90;;;;;;5051514;28;20203;-73
2022/11/23 07:51:30;;;;;;;4.33;1.57;;;8.50;99.90;;;;;;5052741;28;20155;-75
2022/11/23 07:53:56;;;;;;;6.83;1.93;;;8.60;99.90;;;;;;5052464;28;20979;-73
2022/11/23 07:56:22;;;;;;;15.17;2.30;;;8.60;99.90;;;;;;5052520;28;20424;-73
2022/11/23 07:58:47;;;;;;;2.37;2.17;;;8.80;99.90;;;;;;5052844;28;20401;-76
2022/11/23 08:01:17;;;;;;;6.00;1.60;;;9.20;99.90;;;;;;5052839;28;20163;-76
2022/11/23 08:03:47;;;;;;;4.77;1.43;;;9.80;99.90;;;;;;5051928;28;20598;-75
2022/11/23 08:06:14;;;;;;;4.07;1.77;;;10.30;99.90;;;;;;5052759;28;20447;-77
2022/11/23 08:08:40;;;;;;;3.87;1.30;;;10.70;99.90;;;;;;5053895;28;20440;-78
2022/11/23 08:11:06;;;;;;;4.87;2.20;;;11.20;99.90;;;;;;5055934;28;20493;-77
2022/11/23 08:13:33;;;;;;;7.87;2.20;;;11.40;99.90;;;;;;5051600;28;20517;-76
2022/11/23 08:15:59;;;;;;;7.10;1.60;;;11.80;99.90;;;;;;5051911;28;20496;-76
2022/11/23 08:18:25;;;;;;;5.20;1.97;;;12.00;99.90;;;;;;5052602;28;20421;-77
2022/11/23 08:20:51;;;;;;;13.57;2.20;;;12.30;99.90;;;;;;5051596;28;20421;-77
2022/11/23 08:23:17;;;;;;;3.83;1.57;;;12.30;99.90;;;;;;5051018;28;20489;-76
2022/11/23 08:25:42;;;;;;;3.53;1.37;;;12.60;99.90;;;;;;5051978;28;20178;-77
2022/11/23 08:28:09;;;;;;;3.60;1.37;;;12.60;99.90;;;;;;5052203;28;20166;-76
2022/11/23 08:30:35;;;;;;;5.10;1.47;;;12.80;99.90;;;;;;5051954;28;20565;-76
2022/11/23 08:33:04;;;;;;;4.13;1.50;;;12.80;99.90;;;;;;5052098;28;20449;-77
2022/11/23 08:35:33;;;;;;;6.23;2.10;;;12.80;99.90;;;;;;5051810;28;20493;-76
2022/11/23 08:37:58;;;;;;;6.43;1.30;;;12.60;99.90;;;;;;5051368;28;20417;-77
2022/11/23 08:40:24;;;;;;;7.03;1.70;;;12.60;99.90;;;;;;5050730;28;20413;-75
2022/11/23 08:42:49;;;;;;;10.27;1.93;;;12.50;99.90;;;;;;5051788;28;20567;-76
2022/11/23 08:45:15;;;;;;;11.20;2.13;;;12.80;99.90;;;;;;5052100;28;20175;-76
2022/11/23 08:47:40;;;;;;;6.40;1.60;;;12.90;99.90;;;;;;5052029;28;20182;-76
2022/11/23 08:50:06;;;;;;;6.40;1.17;;;12.70;99.90;;;;;;5051861;28;20208;-75
2022/11/23 08:52:32;;;;;;;5.97;1.50;;;12.70;99.90;;;;;;5050540;28;20213;-76
2022/11/23 08:54:57;;;;;;;4.30;1.00;;;12.40;99.90;;;;;;5052222;28;20648;-76
2022/11/23 08:57:23;;;;;;;4.93;2.40;;;12.00;99.90;;;;;;5051989;28;20212;-76
2022/11/23 08:59:48;;;;;;;3.67;1.50;;;12.30;99.90;;;;;;5052341;28;20225;-77
2022/11/23 09:02:14;;;;;;;3.33;2.10;;;12.30;99.90;;;;;;5051923;28;20280;-76
2022/11/23 09:04:40;;;;;;;12.00;2.13;;;12.50;99.90;;;;;;5051628;28;20175;-76
2022/11/23 09:07:06;;;;;;;7.97;1.97;;;12.50;99.90;;;;;;5050642;28;20197;-77
2022/11/23 09:09:32;;;;;;;5.00;1.70;;;12.20;99.90;;;;;;5051992;28;20814;-76
2022/11/23 09:11:57;;;;;;;5.43;1.77;;;12.00;99.90;;;;;;5051672;28;20421;-77
2022/11/23 09:14:23;;;;;;;6.57;1.40;;;12.10;99.90;;;;;;5051492;28;20163;-76
2022/11/23 09:16:49;;;;;;;2.80;1.30;;;11.90;99.90;;;;;;5051676;28;20163;-75
2022/11/23 09:19:14;;;;;;;5.73;2.20;;;11.50;99.90;;;;;;5051476;28;20544;-76
2022/11/23 09:21:41;;;;;;;5.20;2.13;;;11.20;99.90;;;;;;5051538;28;20191;-76
2022/11/23 09:24:09;;;;;;;7.03;1.97;;;11.00;99.90;;;;;;5052319;28;20175;-75
2022/11/23 09:26:36;;;;;;;2.57;1.47;;;10.90;99.90;;;;;;5051849;28;20495;-77
2022/11/23 09:29:02;;;;;;;8.23;2.00;;;10.90;99.90;;;;;;5052375;28;20546;-79
2022/11/23 09:31:28;;;;;;;11.90;2.93;;;10.90;99.90;;;;;;5051960;28;20484;-76
2022/11/23 09:33:54;;;;;;;4.20;1.63;;;11.30;99.90;;;;;;5051603;28;20488;-76
2022/11/23 09:36:21;;;;;;;3.53;1.30;;;11.80;99.90;;;;;;5049979;28;20166;-76
2022/11/23 09:38:47;;;;;;;10.83;2.07;;;12.00;99.90;;;;;;5050486;28;20757;-76
2022/11/23 09:41:34;;;;;;;4.83;1.50;;;12.20;99.90;;;;;;5051624;28;20410;-76
2022/11/23 09:44:01;;;;;;;3.07;1.40;;;12.30;99.90;;;;;;5052108;28;20408;-77
2022/11/23 09:46:27;;;;;;;4.20;1.50;;;11.80;99.90;;;;;;5051802;28;20481;-77
2022/11/23 09:49:13;;;;;;;4.10;1.53;;;11.20;99.90;;;;;;5051960;28;20444;-76
2022/11/23 09:51:40;;;;;;;4.37;1.93;;;11.10;99.90;;;;;;5055544;28;20260;-77
2022/11/23 09:54:22;;;;;;;4.97;2.00;;;10.80;99.90;;;;;;5055971;28;20408;-77
2022/11/23 09:56:51;;;;;;;10.53;1.97;;;10.70;99.90;;;;;;5055773;28;20397;-75
2022/11/23 09:59:30;;;;;;;8.07;3.07;;;10.70;99.90;;;;;;5054226;28;20500;-76
2022/11/23 10:01:59;;;;;;;4.90;2.30;;;10.70;99.90;;;;;;5055046;28;20529;-76
2022/11/23 10:04:26;;;;;;;5.67;1.60;;;10.60;99.90;;;;;;5053358;28;20444;-76
2022/11/23 10:07:22;;;;;;;4.40;2.23;;;10.60;99.90;;;;;;5034950;28;20493;-77
2022/11/23 10:09:51;;;;;;;3.47;1.40;;;10.40;99.90;;;;;;5035969;28;20516;-78
2022/11/23 10:12:24;;;;;;;12.60;2.57;;;10.40;99.90;;;;;;5053178;28;20528;-76
2022/11/23 10:15:08;;;;;;;9.63;1.93;;;10.30;99.90;;;;;;5038305;28;20801;-77
2022/11/23 10:18:01;;;;;;;4.43;1.60;;;10.20;99.90;;;;;;5054006;28;20416;-77
2022/11/23 10:20:55;;;;;;;6.63;1.77;;;10.20;99.90;;;;;;5055271;28;20483;-76
2022/11/23 10:23:53;;;;;;;4.60;1.53;;;10.20;99.90;;;;;;5054996;28;20526;-75
2022/11/23 10:26:25;;;;;;;7.87;2.17;;;10.40;99.90;;;;;;5054834;28;20902;-76
2022/11/23 10:28:53;;;;;;;4.73;1.50;;;11.10;99.90;;;;;;5039216;28;20428;-77
2022/11/23 10:31:21;;;;;;;7.70;1.87;;;11.70;99.90;;;;;;5054706;28;20410;-76
2022/11/23 10:33:55;;;;;;;3.40;1.33;;;11.80;99.90;;;;;;5054081;28;20421;-76
2022/11/23 10:36:21;;;;;;;4.20;2.30;;;11.60;99.90;;;;;;5054669;28;20413;-77
2022/11/23 10:38:53;;;;;;;8.63;1.50;;;11.30;99.90;;;;;;5054457;28;20421;-77
2022/11/23 10:41:19;;;;;;;3.50;1.43;;;11.50;99.90;;;;;;5053888;28;20170;-77
2022/11/23 10:43:53;;;;;;;5.10;2.30;;;12.30;99.90;;;;;;5055103;28;20397;-77
2022/11/23 10:46:21;;;;;;;6.70;1.63;;;13.60;99.90;;;;;;5054961;28;20240;-77
2022/11/23 10:48:47;;;;;;;4.10;1.60;;;14.80;99.90;;;;;;5054741;28;20394;-78
2022/11/23 10:51:19;;;;;;;8.03;2.00;;;15.80;99.90;;;;;;5054629;28;20421;-78
2022/11/23 10:53:52;;;;;;;4.13;1.87;;;16.40;97.50;;;;;;5053781;28;20177;-78
2022/11/23 10:56:18;;;;;;;4.27;1.80;;;16.40;96.90;;;;;;5054795;28;20934;-78
2022/11/23 10:58:45;;;;;;;5.00;1.87;;;16.40;93.40;;;;;;5054801;28;20436;-76
2022/11/23 11:01:30;;;;;;;4.53;2.47;;;16.70;93.30;;;;;;5052455;28;20167;-77
2022/11/23 11:04:05;;;;;;;3.80;2.30;;;17.10;91.30;;;;;;5038898;28;20410;-77
2022/11/23 11:06:33;;;;;;;5.67;2.40;;;17.40;89.30;;;;;;5034908;28;20405;-78
2022/11/23 11:09:18;;;;;;;4.13;2.23;;;17.30;83.70;;;;;;5050312;28;20454;-77
2022/11/23 11:11:46;;;;;;;3.83;2.10;;;16.40;85.10;;;;;;5035025;28;20532;-76
2022/11/23 11:14:16;;;;;;;7.33;2.13;;;15.30;89.20;;;;;;5034862;28;20406;-74
2022/11/23 11:16:56;;;;;;;3.50;2.00;;;14.10;92.40;;;;;;5054026;28;20421;-76
2022/11/23 11:19:26;;;;;;;19.73;2.03;;;13.70;96.10;;;;;;5054719;28;20400;-78
2022/11/23 11:21:52;;;;;;;5.73;2.27;;;13.20;99.90;;;;;;5054396;28;20449;-78
2022/11/23 11:24:22;;;;;;;4.73;2.73;;;12.80;99.90;;;;;;5053925;28;20543;-78
2022/11/23 11:27:05;;;;;;;13.23;1.70;;;12.30;99.90;;;;;;5054671;28;20171;-78
2022/11/23 11:29:55;;;;;;;3.53;1.40;;;12.20;99.90;;;;;;5054280;28;21080;-77
2022/11/23 11:32:59;;;;;;;2.70;1.40;;;11.80;99.90;;;;;;5048723;28;20440;-77
2022/11/23 11:35:33;;;;;;;4.73;1.53;;;11.40;99.90;;;;;;5054062;28;20437;-78
2022/11/23 11:38:04;;;;;;;2.40;1.63;;;11.40;99.90;;;;;;5054215;28;20408;-77
2022/11/23 11:40:38;;;;;;;3.60;1.97;;;11.40;99.90;;;;;;5037107;28;20448;-77
2022/11/23 11:43:25;;;;;;;4.50;1.33;;;11.30;99.90;;;;;;5034222;28;20485;-77
2022/11/23 11:45:58;;;;;;;4.90;1.17;;;11.10;99.90;;;;;;5032490;28;20406;-75
2022/11/23 11:48:33;;;;;;;3.30;2.63;;;11.30;99.90;;;;;;5033829;28;20394;-76
2022/11/23 11:51:20;;;;;;;1.97;1.00;;;12.50;99.90;;;;;;5036142;28;20456;-77
2022/11/23 11:54:02;;;;;;;3.90;1.87;;;14.50;99.90;;;;;;5053901;28;20460;-77
2022/11/23 11:56:35;;;;;;;4.93;1.57;;;15.10;99.90;;;;;;5052123;28;20416;-77
2022/11/23 11:59:15;;;;;;;7.80;2.37;;;14.70;99.90;;;;;;5046093;28;20430;-77
2022/11/23 12:01:49;;;;;;;7.47;1.60;;;13.70;99.90;;;;;;5033739;28;20494;-77
2022/11/23 12:04:26;;;;;;;5.30;2.00;;;12.60;99.90;;;;;;5032170;28;20835;-76
2022/11/23 12:07:07;;;;;;;4.70;1.30;;;12.20;99.90;;;;;;5032169;28;20421;-76
2022/11/23 12:09:39;;;;;;;6.53;1.97;;;11.80;99.90;;;;;;5043313;28;20460;-76
2022/11/23 12:12:13;;;;;;;6.20;1.67;;;11.60;99.90;;;;;;5050895;28;20437;-77
2022/11/23 12:14:38;;;;;;;4.17;1.40;;;11.60;99.90;;;;;;5052208;28;20400;-76
2022/11/23 12:17:17;;;;;;;3.20;1.20;;;11.50;99.90;;;;;;5052427;28;20868;-75
2022/11/23 12:20:03;;;;;;;2.70;1.10;;;11.70;99.90;;;;;;5051206;28;20224;-76
2022/11/23 12:23:11;;;;;;;3.33;1.37;;;12.20;99.90;;;;;;5031072;28;20826;-75
2022/11/23 12:25:39;;;;;;;1.80;1.27;;;11.90;99.90;;;;;;5012648;28;20775;-75
2022/11/23 12:28:15;;;;;;;3.90;1.70;;;11.50;99.90;;;;;;5032574;28;20460;-76
2022/11/23 12:31:15;;;;;;;3.03;1.30;;;11.30;99.90;;;;;;5033381;28;20540;-75
2022/11/23 12:34:10;;;;;;;2.17;0.97;;;11.60;99.90;;;;;;5044919;28;20452;-75
2022/11/23 12:36:38;;;;;;;2.80;1.50;;;12.90;99.90;;;;;;5053229;28;20756;-78
2022/11/23 12:39:23;;;;;;;5.27;1.33;;;14.30;99.90;;;;;;5052147;28;20500;-78
2022/11/23 12:42:12;;;;;;;4.73;1.70;;;15.50;99.90;;;;;;5052577;28;20466;-78
2022/11/23 12:45:15;;;;;;;1.60;1.50;;;16.00;97.20;;;;;;5048441;28;20430;-77
2022/11/23 12:48:01;;;;;;;6.43;2.17;;;16.50;93.10;;;;;;5033791;28;20413;-77
2022/11/23 12:50:34;;;;;;;5.47;2.00;;;16.60;89.70;;;;;;5033011;28;20540;-76
2022/11/23 12:53:28;;;;;;;4.80;2.20;;;16.30;89.90;;;;;;5031975;28;20778;-77
2022/11/23 12:56:26;;;;;;;3.00;2.10;;;16.20;90.60;;;;;;5032708;28;20762;-78
2022/11/23 12:58:54;;;;;;;3.83;2.03;;;15.00;90.70;;;;;;5029347;28;20406;-77
2022/11/23 13:01:33;;;;;;;3.10;1.63;;;14.20;95.30;;;;;;5052882;28;20436;-77
2022/11/23 13:04:17;;;;;;;12.83;3.83;;;14.80;95.20;;;;;;5048295;28;20442;-78